Time;durP1;ratioP1;P1;durP2;ratioP2;P2;SDS_P1;SDS_P2;PMS_P1;PMS_P2;Temp;Humidity;BMP_temperature;BMP_pressure;BME280_temperature;BME280_humidity;BME280_pressure;Samples;Min_cycle;Max_cycle;Signal;HPM_P1;HPM_P2
2022/08/30 00:01:01;;;;;;;8.40;3.92;;;19.10;99.90;;;;;;5117409;28;20034;-71
2022/08/30 00:01:56;;;;;;;12.05;4.22;;;19.10;99.90;;;;;;5117064;28;20020;-71
2022/08/30 00:04:22;;;;;;;10.82;4.32;;;19.10;99.90;;;;;;5115976;28;20020;-71
2022/08/30 00:06:48;;;;;;;7.55;4.10;;;19.10;99.90;;;;;;5116888;28;20028;-71
2022/08/30 00:09:13;;;;;;;10.70;3.90;;;19.00;99.90;;;;;;5115510;28;20023;-71
2022/08/30 00:11:39;;;;;;;8.85;4.22;;;19.00;99.90;;;;;;5115859;28;20016;-71
2022/08/30 00:14:05;;;;;;;8.20;4.25;;;19.00;99.90;;;;;;5117260;28;20055;-71
2022/08/30 00:16:32;;;;;;;5.95;3.92;;;19.00;99.90;;;;;;5115814;28;20020;-71
2022/08/30 00:18:58;;;;;;;7.13;3.60;;;19.00;99.90;;;;;;5117065;28;20016;-71
2022/08/30 00:21:25;;;;;;;15.15;4.28;;;19.00;99.90;;;;;;5115688;28;20030;-71
2022/08/30 00:23:52;;;;;;;7.57;3.50;;;19.00;99.90;;;;;;5115655;28;20364;-71
2022/08/30 00:26:18;;;;;;;10.98;3.58;;;19.00;99.90;;;;;;5107420;28;20027;-72
2022/08/30 00:28:44;;;;;;;11.50;3.60;;;19.00;99.90;;;;;;5112921;28;20066;-71
2022/08/30 00:31:11;;;;;;;10.13;3.92;;;19.00;99.90;;;;;;5110226;28;20015;-72
2022/08/30 00:33:37;;;;;;;7.05;3.65;;;19.00;99.90;;;;;;5113723;28;20103;-72
2022/08/30 00:36:04;;;;;;;8.43;4.05;;;19.00;99.90;;;;;;5116635;28;20047;-71
2022/08/30 00:38:29;;;;;;;7.30;3.28;;;19.00;99.90;;;;;;5108503;28;20111;-71
2022/08/30 00:40:58;;;;;;;8.25;3.88;;;19.00;99.90;;;;;;5118421;28;20051;-71
2022/08/30 00:43:29;;;;;;;7.63;4.47;;;19.00;99.90;;;;;;5120548;28;20028;-71
2022/08/30 00:45:56;;;;;;;9.63;4.25;;;19.00;99.90;;;;;;5110806;28;20468;-71
2022/08/30 00:48:23;;;;;;;5.07;3.40;;;18.90;99.90;;;;;;5119301;28;20031;-71
2022/08/30 00:50:54;;;;;;;6.82;3.42;;;18.90;99.90;;;;;;5118656;28;20019;-71
2022/08/30 00:53:28;;;;;;;8.23;3.85;;;18.90;99.90;;;;;;5120802;28;20534;-71
2022/08/30 00:55:54;;;;;;;7.72;3.92;;;18.80;99.90;;;;;;5119996;28;20023;-71
2022/08/30 00:58:26;;;;;;;7.05;3.60;;;18.80;99.90;;;;;;5120672;28;20016;-71
2022/08/30 01:00:55;;;;;;;9.13;3.85;;;18.70;99.90;;;;;;5120336;28;20022;-71
2022/08/30 01:03:22;;;;;;;7.45;4.00;;;18.70;99.90;;;;;;5110872;28;20016;-71
2022/08/30 01:05:50;;;;;;;8.48;4.28;;;18.70;99.90;;;;;;5106905;28;20024;-71
2022/08/30 01:08:18;;;;;;;10.88;4.03;;;18.60;99.90;;;;;;5113848;28;20024;-71
2022/08/30 01:10:44;;;;;;;7.97;4.03;;;18.60;99.90;;;;;;5119079;28;20073;-71
2022/08/30 01:13:12;;;;;;;10.82;3.97;;;18.50;99.90;;;;;;5120252;28;20024;-71
2022/08/30 01:15:39;;;;;;;12.75;3.75;;;18.50;99.90;;;;;;5120192;28;20020;-71
2022/08/30 01:18:05;;;;;;;5.30;3.72;;;18.50;99.90;;;;;;5111842;28;20008;-71
2022/08/30 01:20:38;;;;;;;11.38;4.80;;;18.50;99.90;;;;;;5120175;28;20028;-71
2022/08/30 01:23:14;;;;;;;7.97;4.22;;;18.50;99.90;;;;;;5118242;28;20107;-71
2022/08/30 01:25:43;;;;;;;6.80;4.43;;;18.50;99.90;;;;;;5116757;28;20028;-71
2022/08/30 01:28:15;;;;;;;9.02;4.60;;;18.50;99.90;;;;;;5116338;28;20419;-71
2022/08/30 01:30:43;;;;;;;5.97;4.40;;;18.50;99.90;;;;;;5114517;28;20028;-71
2022/08/30 01:33:11;;;;;;;8.35;4.03;;;18.50;99.90;;;;;;5116502;28;20059;-71
2022/08/30 01:35:46;;;;;;;8.45;4.90;;;18.50;99.90;;;;;;5119132;28;20024;-71
2022/08/30 01:38:13;;;;;;;12.35;4.57;;;18.50;99.90;;;;;;5117943;28;20106;-71
2022/08/30 01:40:39;;;;;;;7.15;4.10;;;18.50;99.90;;;;;;5119880;28;20011;-71
2022/08/30 01:43:06;;;;;;;6.45;4.00;;;18.40;99.90;;;;;;5117294;28;20023;-71
2022/08/30 01:45:32;;;;;;;10.80;4.15;;;18.40;99.90;;;;;;5111772;28;20364;-71
2022/08/30 01:47:57;;;;;;;5.60;4.45;;;18.40;99.90;;;;;;5118993;28;20028;-71
2022/08/30 01:50:23;;;;;;;5.68;4.05;;;18.40;99.90;;;;;;5118204;28;20042;-71
2022/08/30 01:52:49;;;;;;;9.90;4.70;;;18.30;99.90;;;;;;5118287;28;20403;-71
2022/08/30 01:55:15;;;;;;;6.78;4.47;;;18.30;99.90;;;;;;5119376;28;20020;-71
2022/08/30 01:57:41;;;;;;;10.95;5.30;;;18.30;99.90;;;;;;5118822;28;20019;-71
2022/08/30 02:00:08;;;;;;;11.80;5.47;;;18.30;99.90;;;;;;5117333;28;20404;-71
2022/08/30 02:02:34;;;;;;;9.63;4.80;;;18.30;99.90;;;;;;5118047;28;20031;-71
2022/08/30 02:05:01;;;;;;;8.68;4.82;;;18.30;99.90;;;;;;5119218;28;20083;-71
2022/08/30 02:07:26;;;;;;;9.20;4.43;;;18.20;99.90;;;;;;5112197;28;20392;-71
2022/08/30 02:09:52;;;;;;;10.10;4.50;;;18.20;99.90;;;;;;5117389;28;20023;-71
2022/08/30 02:12:19;;;;;;;11.40;4.70;;;18.30;99.90;;;;;;5106878;28;20016;-71
2022/08/30 02:14:45;;;;;;;8.80;4.78;;;18.20;99.90;;;;;;5114680;28;20503;-71
2022/08/30 02:17:13;;;;;;;8.40;4.82;;;18.20;99.90;;;;;;5113687;28;20020;-71
2022/08/30 02:19:40;;;;;;;8.00;5.22;;;18.20;99.90;;;;;;5111515;28;20031;-71
2022/08/30 02:22:07;;;;;;;8.52;5.03;;;18.20;99.90;;;;;;5118673;28;20051;-71
2022/08/30 02:24:32;;;;;;;8.90;4.82;;;18.20;99.90;;;;;;5118795;28;20024;-71
2022/08/30 02:26:59;;;;;;;9.85;5.25;;;18.20;99.90;;;;;;5117122;28;20093;-71
2022/08/30 02:29:25;;;;;;;10.93;5.35;;;18.20;99.90;;;;;;5118388;28;20640;-71
2022/08/30 02:31:51;;;;;;;9.55;5.78;;;18.20;99.90;;;;;;5118289;28;20095;-71
2022/08/30 02:34:17;;;;;;;7.60;5.05;;;18.20;99.90;;;;;;5113473;28;20475;-71
2022/08/30 02:36:43;;;;;;;7.35;5.63;;;18.10;99.90;;;;;;5118234;28;20016;-71
2022/08/30 02:39:11;;;;;;;15.52;6.28;;;18.10;99.90;;;;;;5118710;28;20012;-71
2022/08/30 02:41:38;;;;;;;9.82;6.10;;;18.10;99.90;;;;;;5111670;28;20028;-71
2022/08/30 02:44:05;;;;;;;11.20;6.30;;;18.10;99.90;;;;;;5117089;28;20088;-71
2022/08/30 02:46:31;;;;;;;14.70;6.22;;;18.10;99.90;;;;;;5118232;28;20053;-71
2022/08/30 02:48:57;;;;;;;7.18;6.03;;;18.10;99.90;;;;;;5118380;28;20516;-71
2022/08/30 02:51:23;;;;;;;8.55;6.45;;;18.00;99.90;;;;;;5118105;28;20026;-71
2022/08/30 02:53:49;;;;;;;8.38;6.70;;;18.00;99.90;;;;;;5118277;28;20028;-71
2022/08/30 02:56:15;;;;;;;14.57;6.45;;;18.00;99.90;;;;;;5118402;28;20011;-71
2022/08/30 02:58:42;;;;;;;8.70;6.55;;;18.00;99.90;;;;;;5118341;28;20027;-71
2022/08/30 03:01:11;;;;;;;10.75;6.95;;;18.00;99.90;;;;;;5115711;28;20102;-71
2022/08/30 03:03:37;;;;;;;10.40;7.55;;;18.00;99.90;;;;;;5116804;28;20023;-71
2022/08/30 03:06:03;;;;;;;9.65;7.03;;;18.00;99.90;;;;;;5115498;28;20020;-71
2022/08/30 03:08:30;;;;;;;14.50;8.07;;;18.00;99.90;;;;;;5117105;28;20045;-71
2022/08/30 03:10:56;;;;;;;13.65;8.45;;;18.00;99.90;;;;;;5116518;28;20099;-71
2022/08/30 03:13:23;;;;;;;12.20;8.35;;;18.00;99.90;;;;;;5117607;28;20058;-71
2022/08/30 03:15:49;;;;;;;15.50;8.30;;;18.00;99.90;;;;;;5111567;28;20024;-71
2022/08/30 03:18:17;;;;;;;15.20;9.30;;;18.10;99.90;;;;;;5108582;28;20065;-71
2022/08/30 03:20:43;;;;;;;10.88;6.85;;;18.10;99.90;;;;;;5117674;28;20054;-71
2022/08/30 03:23:09;;;;;;;9.30;7.43;;;18.10;99.90;;;;;;5117643;28;20050;-71
2022/08/30 03:25:35;;;;;;;12.43;7.57;;;18.10;99.90;;;;;;5117842;28;20027;-71
2022/08/30 03:28:01;;;;;;;16.42;8.60;;;18.10;99.90;;;;;;5117544;28;20130;-71
2022/08/30 03:30:27;;;;;;;9.20;7.35;;;18.10;99.90;;;;;;5116258;28;20026;-71
2022/08/30 03:32:53;;;;;;;15.10;7.70;;;18.10;99.90;;;;;;5117627;28;20535;-71
2022/08/30 03:35:19;;;;;;;11.30;7.28;;;18.10;99.90;;;;;;5117640;28;20015;-71
2022/08/30 03:37:46;;;;;;;12.43;7.43;;;18.10;99.90;;;;;;5117404;28;20054;-71
2022/08/30 03:40:13;;;;;;;8.68;6.88;;;18.10;99.90;;;;;;5116162;28;20037;-71
2022/08/30 03:42:40;;;;;;;7.80;6.85;;;18.10;99.90;;;;;;5117593;28;20027;-71
2022/08/30 03:45:06;;;;;;;13.00;8.25;;;18.10;99.90;;;;;;5117439;28;20019;-71
2022/08/30 03:47:33;;;;;;;16.23;7.65;;;18.10;99.90;;;;;;5117363;28;20102;-71
2022/08/30 03:49:59;;;;;;;13.57;8.20;;;18.00;99.90;;;;;;5117532;28;20019;-71
2022/08/30 03:52:25;;;;;;;16.70;8.10;;;18.00;99.90;;;;;;5108735;28;20036;-71
2022/08/30 03:54:50;;;;;;;10.55;7.70;;;18.00;99.90;;;;;;5117539;28;20015;-71
2022/08/30 03:57:16;;;;;;;15.88;8.27;;;18.00;99.90;;;;;;5116206;28;20503;-71
2022/08/30 03:59:42;;;;;;;9.60;7.88;;;18.00;99.90;;;;;;5116031;28;20016;-71
2022/08/30 04:02:08;;;;;;;8.30;7.22;;;18.00;99.90;;;;;;5112391;28;20019;-71
2022/08/30 04:04:34;;;;;;;10.25;7.55;;;18.00;99.90;;;;;;5117516;28;20027;-71
2022/08/30 04:07:00;;;;;;;8.80;7.07;;;18.00;99.90;;;;;;5115657;28;20031;-71
2022/08/30 04:09:25;;;;;;;11.70;8.25;;;18.00;99.90;;;;;;5116004;28;20062;-71
2022/08/30 04:11:51;;;;;;;16.80;8.07;;;18.00;99.90;;;;;;5117052;28;20049;-71
2022/08/30 04:14:18;;;;;;;12.88;7.93;;;18.00;99.90;;;;;;5117439;28;20012;-71
2022/08/30 04:16:44;;;;;;;15.85;8.65;;;18.00;99.90;;;;;;5119758;28;20016;-71
2022/08/30 04:19:10;;;;;;;10.50;7.32;;;18.00;99.90;;;;;;5121493;28;20022;-71
2022/08/30 04:21:36;;;;;;;15.20;8.35;;;18.10;99.90;;;;;;5118261;28;20468;-71
2022/08/30 04:24:02;;;;;;;11.30;7.30;;;18.00;99.90;;;;;;5121287;28;20026;-71
2022/08/30 04:26:29;;;;;;;17.50;7.85;;;18.00;99.90;;;;;;5111289;28;20369;-71
2022/08/30 04:28:55;;;;;;;14.23;7.75;;;18.00;99.90;;;;;;5119694;28;20024;-71
2022/08/30 04:31:21;;;;;;;13.52;7.45;;;18.00;99.90;;;;;;5120949;28;20077;-71
2022/08/30 04:33:47;;;;;;;10.48;6.53;;;18.00;99.90;;;;;;5120924;28;20019;-71
2022/08/30 04:36:13;;;;;;;15.13;6.47;;;18.00;99.90;;;;;;5119409;28;20076;-71
2022/08/30 04:38:40;;;;;;;7.85;6.65;;;18.00;99.90;;;;;;5121122;28;20098;-71
2022/08/30 04:41:15;;;;;;;12.13;6.72;;;18.10;99.90;;;;;;5120743;28;20020;-71
2022/08/30 04:43:42;;;;;;;13.73;6.88;;;18.10;99.90;;;;;;5119614;28;20124;-71
2022/08/30 04:46:09;;;;;;;13.60;7.30;;;18.10;99.90;;;;;;5120611;28;20096;-71
2022/08/30 04:48:36;;;;;;;13.38;6.90;;;18.10;99.90;;;;;;5120932;28;20020;-71
2022/08/30 04:51:07;;;;;;;10.65;6.75;;;18.20;99.90;;;;;;5119022;28;20024;-71
2022/08/30 04:53:34;;;;;;;11.02;7.05;;;18.20;99.90;;;;;;5118403;28;20495;-71
2022/08/30 04:56:01;;;;;;;8.25;6.60;;;18.20;99.90;;;;;;5118144;28;20411;-71
2022/08/30 04:58:26;;;;;;;13.95;7.75;;;18.10;99.90;;;;;;5111557;28;20531;-71
2022/08/30 05:00:52;;;;;;;12.20;6.70;;;18.10;99.90;;;;;;5117422;28;20032;-71
2022/08/30 05:03:18;;;;;;;12.88;7.18;;;18.00;99.90;;;;;;5120572;28;20024;-71
2022/08/30 05:05:49;;;;;;;9.50;6.43;;;18.00;99.90;;;;;;5120025;28;20039;-71
2022/08/30 05:08:17;;;;;;;12.45;7.53;;;17.90;99.90;;;;;;5120548;28;20020;-71
2022/08/30 05:10:47;;;;;;;12.13;7.03;;;17.90;99.90;;;;;;5106424;28;20026;-71
2022/08/30 05:13:13;;;;;;;9.13;7.28;;;17.90;99.90;;;;;;5117117;28;20024;-71
2022/08/30 05:15:39;;;;;;;8.38;6.90;;;17.80;99.90;;;;;;5119904;28;20015;-71
2022/08/30 05:18:06;;;;;;;10.68;6.47;;;17.80;99.90;;;;;;5118823;28;20030;-71
2022/08/30 05:20:33;;;;;;;13.63;7.75;;;17.80;99.90;;;;;;5119743;28;20080;-71
2022/08/30 05:22:59;;;;;;;10.45;6.88;;;17.80;99.90;;;;;;5120219;28;20024;-71
2022/08/30 05:25:28;;;;;;;9.65;6.38;;;17.80;99.90;;;;;;5107296;28;20035;-71
2022/08/30 05:27:55;;;;;;;14.10;7.18;;;17.80;99.90;;;;;;5112472;28;20118;-71
2022/08/30 05:30:23;;;;;;;7.85;6.68;;;17.80;99.90;;;;;;5120034;28;20077;-71
2022/08/30 05:32:49;;;;;;;15.07;7.70;;;17.80;99.90;;;;;;5118277;28;20016;-71
2022/08/30 05:35:16;;;;;;;12.07;6.25;;;17.90;99.90;;;;;;5118648;28;20537;-71
2022/08/30 05:37:42;;;;;;;8.32;6.32;;;17.80;99.90;;;;;;5112027;28;20019;-71
2022/08/30 05:40:09;;;;;;;9.23;6.53;;;17.90;99.90;;;;;;5111032;28;20020;-71
2022/08/30 05:42:35;;;;;;;11.45;7.82;;;17.80;99.90;;;;;;5106414;28;20103;-71
2022/08/30 05:45:02;;;;;;;8.98;6.85;;;17.80;99.90;;;;;;5118348;28;20176;-71
2022/08/30 05:47:28;;;;;;;12.77;7.45;;;17.80;99.90;;;;;;5119363;28;20407;-71
2022/08/30 05:49:54;;;;;;;12.57;7.50;;;17.90;99.90;;;;;;5112329;28;20026;-71
2022/08/30 05:52:20;;;;;;;15.18;7.28;;;17.90;99.90;;;;;;5119057;28;20024;-71
2022/08/30 05:54:52;;;;;;;16.48;7.85;;;18.00;99.90;;;;;;5118102;28;20394;-71
2022/08/30 05:57:18;;;;;;;14.68;7.85;;;18.00;99.90;;;;;;5114139;28;20008;-71
2022/08/30 05:59:45;;;;;;;11.15;7.00;;;18.10;99.90;;;;;;5118008;28;20069;-71
2022/08/30 06:02:10;;;;;;;9.20;7.90;;;18.20;99.90;;;;;;5119359;28;20028;-71
2022/08/30 06:04:36;;;;;;;10.90;7.65;;;18.20;99.90;;;;;;5119111;28;20023;-71
2022/08/30 06:07:02;;;;;;;12.95;7.97;;;18.30;99.90;;;;;;5117584;28;20028;-71
2022/08/30 06:09:28;;;;;;;9.63;7.65;;;18.30;99.90;;;;;;5117714;28;20024;-71
2022/08/30 06:11:54;;;;;;;18.23;8.60;;;18.40;99.90;;;;;;5118973;28;20030;-71
2022/08/30 06:14:20;;;;;;;15.65;9.00;;;18.40;99.90;;;;;;5117992;28;20020;-71
2022/08/30 06:16:46;;;;;;;11.70;8.65;;;18.40;99.90;;;;;;5117133;28;20054;-71
2022/08/30 06:19:13;;;;;;;11.15;9.15;;;18.50;99.90;;;;;;5110311;28;20062;-71
2022/08/30 06:21:40;;;;;;;14.15;9.05;;;18.50;99.90;;;;;;5118482;28;20098;-71
2022/08/30 06:24:09;;;;;;;15.93;7.93;;;18.60;99.90;;;;;;5111015;28;20119;-71
2022/08/30 06:26:40;;;;;;;15.77;8.40;;;18.70;99.90;;;;;;5112762;28;20093;-71
2022/08/30 06:29:08;;;;;;;13.68;8.55;;;18.80;99.90;;;;;;5113627;28;20031;-71
2022/08/30 06:31:34;;;;;;;10.63;7.93;;;18.90;99.90;;;;;;5118528;28;20709;-71
2022/08/30 06:34:00;;;;;;;12.18;8.88;;;19.00;99.90;;;;;;5108498;28;20055;-71
2022/08/30 06:36:26;;;;;;;12.45;7.47;;;19.10;99.90;;;;;;5118439;28;20023;-71
2022/08/30 06:38:54;;;;;;;10.63;6.70;;;19.20;99.90;;;;;;5118147;28;20419;-71
2022/08/30 06:41:24;;;;;;;13.50;8.57;;;19.30;99.90;;;;;;5111545;28;20076;-71
2022/08/30 06:43:50;;;;;;;13.45;8.88;;;19.40;99.90;;;;;;5118378;28;20098;-72
2022/08/30 06:46:23;;;;;;;10.02;8.52;;;19.60;99.90;;;;;;5118444;28;20020;-71
2022/08/30 06:48:49;;;;;;;14.93;9.07;;;19.70;99.90;;;;;;5116843;28;20395;-72
2022/08/30 06:51:21;;;;;;;11.32;9.15;;;19.80;99.90;;;;;;5117980;28;20015;-71
2022/08/30 06:53:48;;;;;;;16.58;9.88;;;19.90;99.90;;;;;;5118336;28;20027;-71
2022/08/30 06:56:14;;;;;;;12.60;8.23;;;19.90;99.90;;;;;;5118312;28;20016;-71
2022/08/30 06:58:40;;;;;;;9.85;7.90;;;20.10;99.90;;;;;;5106037;28;20073;-71
2022/08/30 07:01:10;;;;;;;10.27;7.72;;;20.20;99.90;;;;;;5117279;28;20096;-71
2022/08/30 07:03:36;;;;;;;10.90;8.17;;;20.20;99.90;;;;;;5114289;28;20020;-71
2022/08/30 07:06:02;;;;;;;12.85;9.27;;;20.30;99.90;;;;;;5114050;28;20034;-71
2022/08/30 07:08:28;;;;;;;22.00;8.80;;;20.40;99.90;;;;;;5111177;28;20024;-71
2022/08/30 07:10:54;;;;;;;10.73;8.50;;;20.50;99.90;;;;;;5108120;28;20019;-72
2022/08/30 07:13:22;;;;;;;13.07;8.60;;;20.60;99.90;;;;;;5116516;28;20031;-71
2022/08/30 07:15:49;;;;;;;10.93;4.70;;;20.70;99.90;;;;;;5111207;28;20024;-72
2022/08/30 07:21:07;;;;;;;10.50;5.28;;;20.90;99.90;;;;;;5117882;28;20111;-72
2022/08/30 07:23:33;;;;;;;7.47;4.60;;;21.00;99.90;;;;;;5106790;28;20102;-72
2022/08/30 07:26:03;;;;;;;9.02;4.53;;;21.10;99.90;;;;;;5114736;28;20039;-71
2022/08/30 07:28:29;;;;;;;9.48;4.68;;;21.20;99.90;;;;;;5115365;28;20487;-73
2022/08/30 07:30:55;;;;;;;9.65;4.82;;;21.30;99.90;;;;;;5116471;28;20036;-72
2022/08/30 07:33:21;;;;;;;11.27;5.05;;;21.30;99.90;;;;;;5117682;28;20110;-72
2022/08/30 07:35:47;;;;;;;8.10;4.57;;;21.50;99.90;;;;;;5117630;28;20051;-72
2022/08/30 07:38:13;;;;;;;6.38;4.38;;;21.60;99.90;;;;;;5117519;28;20030;-72
2022/08/30 07:40:39;;;;;;;8.20;4.88;;;21.60;99.90;;;;;;5109774;28;20452;-72
2022/08/30 07:43:05;;;;;;;7.97;4.10;;;21.80;99.90;;;;;;5114503;28;20027;-72
2022/08/30 07:45:32;;;;;;;7.43;4.15;;;21.70;99.90;;;;;;5108613;28;20467;-72
2022/08/30 07:47:58;;;;;;;7.85;4.40;;;21.80;99.90;;;;;;5109957;28;20037;-73
2022/08/30 07:50:24;;;;;;;9.88;3.80;;;21.90;99.90;;;;;;5115107;28;20479;-72
2022/08/30 07:52:50;;;;;;;8.48;3.80;;;22.10;99.90;;;;;;5117414;28;20051;-72
2022/08/30 07:55:16;;;;;;;7.53;3.85;;;22.20;99.90;;;;;;5117488;28;20027;-72
2022/08/30 07:57:41;;;;;;;8.35;3.15;;;22.20;99.90;;;;;;5117666;28;20396;-72
2022/08/30 08:00:09;;;;;;;14.98;3.97;;;22.40;99.90;;;;;;5117499;28;20020;-72
2022/08/30 08:02:36;;;;;;;8.15;3.78;;;22.40;99.90;;;;;;5117325;28;20387;-71
2022/08/30 08:05:04;;;;;;;5.82;3.30;;;22.50;99.90;;;;;;5117480;28;20092;-72
2022/08/30 08:07:30;;;;;;;8.93;3.00;;;22.60;99.90;;;;;;5116979;28;20047;-72
2022/08/30 08:09:57;;;;;;;6.95;3.30;;;22.70;99.90;;;;;;5115152;28;20031;-72
2022/08/30 08:12:23;;;;;;;8.65;4.50;;;22.70;99.90;;;;;;5117065;28;20050;-71
2022/08/30 08:14:49;;;;;;;8.00;3.13;;;22.80;99.90;;;;;;5109095;28;20029;-72
2022/08/30 08:17:15;;;;;;;8.85;3.83;;;22.90;99.90;;;;;;5110257;28;20020;-72
2022/08/30 08:19:41;;;;;;;10.43;3.97;;;22.90;99.90;;;;;;5109761;28;20076;-71
2022/08/30 08:22:07;;;;;;;7.13;3.38;;;23.00;99.90;;;;;;5117026;28;20020;-71
2022/08/30 08:24:32;;;;;;;9.25;3.92;;;22.90;99.90;;;;;;5116287;28;20115;-71
2022/08/30 08:26:58;;;;;;;6.85;3.30;;;23.00;99.90;;;;;;5116938;28;20074;-72
2022/08/30 08:29:26;;;;;;;8.80;2.97;;;23.00;99.90;;;;;;5109609;28;20019;-72
2022/08/30 08:31:53;;;;;;;8.20;3.25;;;23.10;99.90;;;;;;5112344;28;20480;-72
2022/08/30 08:34:22;;;;;;;12.77;3.38;;;23.10;99.90;;;;;;5109529;28;20053;-71
2022/08/30 08:36:49;;;;;;;11.77;3.67;;;23.20;99.90;;;;;;5116676;28;20019;-72
2022/08/30 08:39:15;;;;;;;11.18;2.90;;;23.30;99.90;;;;;;5111651;28;20438;-71
2022/08/30 08:42:16;;;;;;;8.75;3.50;;;23.30;99.90;;;;;;5115624;28;20118;-71
2022/08/30 08:44:58;;;;;;;15.02;3.65;;;23.40;99.90;;;;;;5113676;28;20465;-71
2022/08/30 08:47:31;;;;;;;6.70;3.33;;;23.60;99.90;;;;;;5116673;28;20020;-71
2022/08/30 08:50:02;;;;;;;11.18;4.25;;;23.60;99.90;;;;;;5115684;28;20395;-71
2022/08/30 08:55:28;;;;;;;11.00;4.40;;;23.70;99.90;;;;;;5116890;28;20375;-71
2022/08/30 08:57:55;;;;;;;5.88;3.15;;;23.70;99.90;;;;;;5115552;28;20403;-71
2022/08/30 09:00:21;;;;;;;12.57;3.80;;;23.90;99.90;;;;;;5116938;28;20045;-71
2022/08/30 09:03:03;;;;;;;7.88;4.10;;;24.00;99.90;;;;;;5117292;28;20023;-72
2022/08/30 09:05:36;;;;;;;18.23;4.15;;;24.10;99.90;;;;;;5117693;28;20068;-72
2022/08/30 09:08:10;;;;;;;9.82;4.15;;;24.20;99.90;;;;;;5120566;28;20483;-72
2022/08/30 09:10:37;;;;;;;7.40;3.72;;;24.20;99.90;;;;;;5116215;28;20020;-72
2022/08/30 09:13:03;;;;;;;9.68;3.65;;;24.40;99.90;;;;;;5120576;28;20459;-72
2022/08/30 09:15:32;;;;;;;8.95;3.70;;;24.50;99.90;;;;;;5114039;28;20020;-72
2022/08/30 09:18:04;;;;;;;9.20;3.83;;;24.70;99.90;;;;;;5113490;28;20024;-72
2022/08/30 09:20:37;;;;;;;9.60;3.75;;;24.80;99.90;;;;;;5119952;28;20015;-72
2022/08/30 09:23:12;;;;;;;11.07;3.47;;;24.90;99.90;;;;;;5118760;28;20020;-71
2022/08/30 09:25:56;;;;;;;8.73;3.47;;;24.90;99.90;;;;;;5120140;28;20110;-72
2022/08/30 09:28:28;;;;;;;14.35;3.42;;;25.00;99.90;;;;;;5116889;28;20049;-72
2022/08/30 09:31:07;;;;;;;7.85;3.08;;;25.30;99.90;;;;;;5119804;28;20103;-72
2022/08/30 09:33:33;;;;;;;8.13;2.83;;;25.40;99.90;;;;;;5109132;28;20069;-71
2022/08/30 09:36:27;;;;;;;10.48;2.63;;;25.40;99.90;;;;;;5118201;28;20094;-71
2022/08/30 09:39:03;;;;;;;12.02;3.22;;;25.50;99.90;;;;;;5111099;28;20028;-71
2022/08/30 09:41:37;;;;;;;7.70;2.85;;;25.50;99.90;;;;;;5118350;28;20016;-71
2022/08/30 09:44:17;;;;;;;6.18;2.15;;;25.50;99.90;;;;;;5119713;28;20503;-72
2022/08/30 09:46:56;;;;;;;9.98;3.30;;;25.60;99.90;;;;;;5118904;28;20425;-72
2022/08/30 09:49:36;;;;;;;11.23;2.58;;;25.50;99.90;;;;;;5111978;28;20028;-71
2022/08/30 09:52:08;;;;;;;10.20;3.22;;;25.60;99.90;;;;;;5119322;28;20514;-71
2022/08/30 09:55:01;;;;;;;7.00;2.78;;;25.70;99.90;;;;;;5119451;28;20063;-71
2022/08/30 09:57:51;;;;;;;7.15;2.47;;;25.70;99.90;;;;;;5119253;28;20024;-71
2022/08/30 10:00:27;;;;;;;21.42;3.70;;;25.80;99.90;;;;;;5117570;28;20391;-71
2022/08/30 10:03:22;;;;;;;8.48;3.42;;;25.80;99.90;;;;;;5118710;28;20015;-71
2022/08/30 10:06:14;;;;;;;8.57;3.05;;;26.10;99.90;;;;;;5117998;28;20076;-71
2022/08/30 10:08:52;;;;;;;9.15;2.70;;;26.10;99.90;;;;;;5113663;28;20023;-71
2022/08/30 10:11:33;;;;;;;10.25;3.03;;;26.10;99.90;;;;;;5119077;28;20023;-71
2022/08/30 10:14:05;;;;;;;6.38;3.08;;;26.10;99.90;;;;;;5118203;28;20046;-71
2022/08/30 10:16:55;;;;;;;6.50;2.85;;;26.20;99.90;;;;;;5117558;28;20043;-72
2022/08/30 10:19:44;;;;;;;8.85;2.63;;;26.30;99.90;;;;;;5110935;28;20019;-71
2022/08/30 10:22:25;;;;;;;11.70;3.55;;;26.50;99.90;;;;;;5117843;28;20016;-71
2022/08/30 10:25:18;;;;;;;7.13;3.10;;;26.60;99.90;;;;;;5112710;28;20024;-71
2022/08/30 10:28:32;;;;;;;7.25;2.83;;;26.50;99.90;;;;;;5098457;28;20056;-71
2022/08/30 10:31:37;;;;;;;9.20;2.45;;;26.60;99.90;;;;;;5106469;28;20041;-71
2022/08/30 10:34:09;;;;;;;8.52;2.88;;;26.60;99.90;;;;;;5089057;28;20031;-71
2022/08/30 10:36:47;;;;;;;7.28;2.60;;;26.60;99.90;;;;;;5114497;28;20027;-71
2022/08/30 10:39:21;;;;;;;7.68;2.60;;;26.70;99.90;;;;;;5111236;28;20027;-71
2022/08/30 10:41:57;;;;;;;7.75;3.08;;;26.80;99.90;;;;;;5118094;28;20141;-71
2022/08/30 10:44:30;;;;;;;11.77;3.00;;;27.00;99.90;;;;;;5113960;28;20435;-72
2022/08/30 10:47:05;;;;;;;8.00;2.65;;;27.10;99.90;;;;;;5118248;28;20028;-71
2022/08/30 10:49:40;;;;;;;6.28;2.25;;;27.10;99.90;;;;;;5118286;28;20035;-71
2022/08/30 10:52:09;;;;;;;12.35;2.85;;;27.20;99.90;;;;;;5117967;27;20066;-71
2022/08/30 10:54:41;;;;;;;8.10;2.25;;;27.30;99.90;;;;;;5111924;28;20062;-73
2022/08/30 10:57:08;;;;;;;11.45;3.10;;;27.30;99.90;;;;;;5117076;28;20024;-72
2022/08/30 10:59:37;;;;;;;11.57;2.65;;;27.30;99.90;;;;;;5118107;28;20035;-72
2022/08/30 11:02:24;;;;;;;8.88;3.20;;;27.30;99.90;;;;;;5117886;28;20072;-73
2022/08/30 11:05:27;;;;;;;7.90;2.70;;;27.40;99.90;;;;;;5118212;28;20020;-73
2022/08/30 11:08:29;;;;;;;9.00;2.83;;;27.60;99.90;;;;;;5106791;28;20041;-72
2022/08/30 11:11:13;;;;;;;14.90;2.90;;;27.70;99.90;;;;;;5117960;28;20459;-72
2022/08/30 11:13:40;;;;;;;9.48;2.45;;;27.60;99.90;;;;;;5117844;28;20391;-71
2022/08/30 11:16:14;;;;;;;9.85;2.90;;;27.60;99.90;;;;;;5118005;28;20023;-70
2022/08/30 11:18:52;;;;;;;7.88;2.80;;;27.80;99.90;;;;;;5114145;28;20087;-71
2022/08/30 11:21:30;;;;;;;11.10;3.08;;;27.90;99.90;;;;;;5108325;28;20016;-70
2022/08/30 11:24:09;;;;;;;9.13;2.85;;;28.10;99.90;;;;;;5116478;28;20015;-71
2022/08/30 11:26:47;;;;;;;8.90;2.90;;;28.20;99.90;;;;;;5110490;28;20123;-70
2022/08/30 11:29:30;;;;;;;8.23;2.70;;;28.20;99.90;;;;;;5112320;28;20026;-70
2022/08/30 11:32:13;;;;;;;13.43;3.40;;;28.40;99.90;;;;;;5117506;28;20055;-70
2022/08/30 11:34:47;;;;;;;13.90;2.88;;;28.40;99.90;;;;;;5117595;28;20091;-71
2022/08/30 11:37:35;;;;;;;6.95;2.80;;;28.50;99.90;;;;;;5117459;28;20024;-71
2022/08/30 11:40:19;;;;;;;4.75;2.38;;;28.60;99.90;;;;;;5116404;28;20051;-71
2022/08/30 11:42:48;;;;;;;11.75;2.38;;;28.70;99.90;;;;;;5117612;28;20047;-71
2022/08/30 11:45:23;;;;;;;9.13;2.92;;;28.60;99.90;;;;;;5117803;28;20399;-71
2022/08/30 11:47:55;;;;;;;8.98;2.30;;;28.60;99.90;;;;;;5117336;28;20111;-70
2022/08/30 11:50:51;;;;;;;4.88;2.17;;;28.50;99.90;;;;;;5113255;28;20027;-70
2022/08/30 11:53:32;;;;;;;7.22;2.67;;;28.60;99.90;;;;;;5117399;28;20388;-71
2022/08/30 11:56:39;;;;;;;10.07;2.88;;;28.50;99.90;;;;;;5111434;28;20028;-70
2022/08/30 11:59:20;;;;;;;8.35;3.17;;;28.50;99.90;;;;;;5054657;28;20025;-71
2022/08/30 12:01:45;;;;;;;7.47;2.90;;;28.60;99.90;;;;;;5103726;28;20062;-71
2022/08/30 12:04:32;;;;;;;10.85;3.20;;;28.80;99.90;;;;;;5114439;28;20012;-71
2022/08/30 12:07:05;;;;;;;10.75;2.83;;;28.90;99.90;;;;;;5097598;28;20028;-70
2022/08/30 12:09:34;;;;;;;11.50;3.25;;;28.90;99.90;;;;;;5108609;28;20361;-71
2022/08/30 12:12:08;;;;;;;7.75;2.90;;;29.00;99.90;;;;;;5117442;28;20024;-70
2022/08/30 12:14:50;;;;;;;6.85;2.88;;;29.20;99.90;;;;;;5117554;28;20027;-71
2022/08/30 12:20:23;;;;;;;13.10;3.53;;;29.50;99.90;;;;;;5117088;28;20129;-71
2022/08/30 12:22:51;;;;;;;6.97;3.03;;;29.30;99.90;;;;;;5113147;28;20024;-70
2022/08/30 12:25:27;;;;;;;8.70;2.83;;;29.40;99.90;;;;;;5111048;28;20019;-70
2022/08/30 12:28:15;;;;;;;7.63;2.35;;;29.40;99.90;;;;;;5112427;28;20133;-70
2022/08/30 12:30:42;;;;;;;6.45;2.35;;;29.40;99.90;;;;;;5105250;28;20555;-71
2022/08/30 12:33:13;;;;;;;12.70;3.15;;;29.50;99.90;;;;;;5116817;28;20035;-70
2022/08/30 12:35:42;;;;;;;10.93;2.88;;;29.50;99.90;;;;;;5117087;28;20015;-70
2022/08/30 12:38:16;;;;;;;5.95;2.70;;;29.70;99.90;;;;;;5120230;28;20476;-71
2022/08/30 12:40:55;;;;;;;11.27;2.97;;;29.80;99.90;;;;;;5121184;28;20012;-71
2022/08/30 12:43:32;;;;;;;8.88;3.05;;;29.80;99.90;;;;;;5120934;28;20020;-71
2022/08/30 12:46:02;;;;;;;12.75;2.97;;;29.80;99.90;;;;;;5120806;28;20027;-71
2022/08/30 12:48:32;;;;;;;8.32;2.90;;;29.90;99.90;;;;;;5109343;28;20454;-70
2022/08/30 12:51:00;;;;;;;10.10;2.45;;;29.90;99.90;;;;;;5120513;28;20057;-71
2022/08/30 12:53:40;;;;;;;7.85;2.90;;;29.90;99.10;;;;;;5119284;28;20020;-71
2022/08/30 12:56:06;;;;;;;;;;;29.90;99.20;;;;;;5114124;28;20020;-70
2022/08/30 12:58:42;;;;;;;7.93;2.42;;;29.90;99.90;;;;;;5120630;28;20326;-70
2022/08/30 13:01:25;;;;;;;7.43;2.58;;;29.90;99.90;;;;;;5111568;28;20110;-71
2022/08/30 13:03:59;;;;;;;9.15;3.05;;;30.10;99.90;;;;;;5114481;28;20051;-70
2022/08/30 13:06:52;;;;;;;10.27;2.60;;;30.10;99.90;;;;;;5118966;28;20023;-70